createdAt,value
2023-05-20T00:00:11.013Z,62.50
2023-05-20T00:03:12.895Z,62.80
2023-05-20T00:06:14.714Z,63.00
2023-05-20T00:09:17.192Z,63.10
2023-05-20T00:12:18.946Z,63.30
2023-05-20T00:15:20.605Z,63.50
2023-05-20T00:18:22.228Z,63.80
2023-05-20T00:21:23.888Z,63.80
2023-05-20T00:24:25.929Z,64.20
2023-05-20T00:27:27.535Z,64.40
2023-05-20T00:30:29.123Z,64.80
2023-05-20T00:33:31.145Z,64.80
2023-05-20T00:36:32.833Z,65.00
2023-05-20T00:39:34.480Z,65.20
2023-05-20T00:42:36.095Z,65.30
2023-05-20T00:45:38.594Z,65.60
2023-05-20T00:48:42.870Z,65.70
2023-05-20T00:51:44.635Z,66.00
2023-05-20T00:54:46.500Z,66.10
2023-05-20T00:57:52.794Z,66.50
2023-05-20T01:00:55.074Z,66.70
2023-05-20T01:03:56.736Z,66.80
2023-05-20T01:07:00.229Z,67.00
2023-05-20T01:10:02.303Z,67.50
2023-05-20T01:13:08.614Z,67.70
2023-05-20T01:16:11.686Z,67.90
2023-05-20T01:19:27.406Z,68.10
2023-05-20T01:22:29.650Z,68.40
2023-05-20T01:25:31.291Z,68.60
2023-05-20T01:28:38.373Z,69.00
2023-05-20T01:31:40.333Z,69.40
2023-05-20T01:34:43.018Z,69.70
2023-05-20T01:37:46.265Z,70.20
2023-05-20T01:40:48.972Z,70.30
2023-05-20T01:43:50.814Z,70.80
2023-05-20T01:46:52.498Z,71.10
2023-05-20T01:49:54.188Z,71.30
2023-05-20T01:52:55.910Z,71.70
2023-05-20T01:55:57.584Z,72.00
2023-05-20T01:58:59.241Z,72.10
2023-05-20T02:02:01.112Z,72.50
2023-05-20T02:05:02.962Z,72.90
2023-05-20T02:08:04.792Z,73.00
2023-05-20T02:11:06.713Z,73.20
2023-05-20T02:14:08.341Z,73.40
2023-05-20T02:17:09.975Z,73.80
2023-05-20T02:20:12.124Z,74.20
2023-05-20T02:23:13.750Z,74.30
2023-05-20T02:26:15.720Z,74.70
2023-05-20T02:29:17.392Z,74.90
2023-05-20T02:32:20.623Z,75.40
2023-05-20T02:35:22.301Z,75.90
2023-05-20T02:38:24.362Z,75.90
2023-05-20T02:41:25.984Z,76.00
2023-05-20T02:44:27.576Z,76.20
2023-05-20T02:47:29.482Z,76.20
2023-05-20T02:50:31.301Z,76.40
2023-05-20T02:53:33.103Z,76.60
2023-05-20T02:56:34.927Z,76.70
2023-05-20T02:59:36.580Z,76.90
2023-05-20T03:02:38.278Z,77.20
2023-05-20T03:05:40.173Z,77.30
2023-05-20T03:08:42.748Z,77.50
2023-05-20T03:11:44.441Z,77.80
2023-05-20T03:14:46.069Z,77.90
2023-05-20T03:17:47.805Z,78.00
2023-05-20T03:20:49.454Z,78.00
2023-05-20T03:23:51.107Z,78.30
2023-05-20T03:26:53.212Z,78.40
2023-05-20T03:29:54.934Z,78.60
2023-05-20T03:32:59.316Z,78.60
2023-05-20T03:36:01.360Z,78.70
2023-05-20T03:39:04.216Z,78.80
2023-05-20T03:42:05.980Z,78.90
2023-05-20T03:45:08.023Z,78.70
2023-05-20T03:48:09.699Z,78.90
2023-05-20T03:51:11.283Z,78.80
2023-05-20T03:54:13.024Z,78.90
2023-05-20T03:57:14.733Z,78.90
2023-05-20T04:00:17.476Z,78.80
2023-05-20T04:03:19.280Z,78.80
2023-05-20T04:06:22.586Z,78.70
2023-05-20T04:09:27.158Z,78.60
2023-05-20T04:12:30.760Z,78.50
2023-05-20T04:15:36.524Z,78.20
2023-05-20T04:18:39.481Z,78.20
2023-05-20T04:21:43.201Z,77.80
2023-05-20T04:24:46.039Z,77.50
2023-05-20T04:27:48.275Z,77.50
2023-05-20T04:30:58.766Z,77.40
2023-05-20T04:34:00.769Z,77.30
2023-05-20T04:37:02.654Z,77.00
2023-05-20T04:40:06.709Z,76.90
2023-05-20T04:43:08.414Z,76.80
2023-05-20T04:46:10.172Z,76.70
2023-05-20T04:49:12.174Z,76.40
2023-05-20T04:52:13.806Z,76.20
2023-05-20T04:55:16.005Z,76.10
2023-05-20T04:58:17.667Z,76.00
2023-05-20T05:01:19.568Z,75.60
2023-05-20T05:04:21.280Z,75.30
2023-05-20T05:07:22.939Z,75.10
2023-05-20T05:10:25.134Z,74.00
2023-05-20T05:13:26.824Z,72.60
2023-05-20T05:16:28.610Z,71.60
2023-05-20T05:19:30.361Z,70.90
2023-05-20T05:22:32.141Z,70.50
2023-05-20T05:25:34.037Z,69.90
2023-05-20T05:28:35.816Z,69.80
2023-05-20T05:31:37.523Z,69.40
2023-05-20T05:34:39.185Z,68.90
2023-05-20T05:37:40.936Z,68.80
2023-05-20T05:40:42.752Z,68.20
2023-05-20T05:43:44.432Z,68.50
2023-05-20T05:46:46.106Z,68.10
2023-05-20T05:49:47.972Z,67.70
2023-05-20T05:52:49.637Z,68.20
2023-05-20T05:55:51.239Z,69.20
2023-05-20T05:58:52.997Z,69.30
2023-05-20T06:01:54.647Z,69.40
2023-05-20T06:04:56.296Z,69.20
2023-05-20T06:07:57.938Z,69.30
2023-05-20T06:10:59.564Z,69.20
2023-05-20T06:14:02.020Z,69.30
2023-05-20T06:17:05.893Z,69.50
2023-05-20T06:20:08.511Z,69.30
2023-05-20T06:23:10.165Z,68.90
2023-05-20T06:26:11.802Z,69.20
2023-05-20T06:29:13.394Z,69.20
2023-05-20T06:32:15.038Z,69.10
2023-05-20T06:35:16.759Z,69.00
2023-05-20T06:38:18.968Z,68.80
2023-05-20T06:41:22.382Z,69.10
2023-05-20T06:44:24.082Z,68.80
2023-05-20T06:47:25.821Z,68.90
2023-05-20T06:50:28.354Z,68.60
2023-05-20T06:53:30.063Z,68.60
2023-05-20T06:56:31.888Z,68.60
2023-05-20T06:59:33.605Z,68.40
2023-05-20T07:02:35.391Z,68.40
2023-05-20T07:05:37.068Z,68.40
2023-05-20T07:08:38.687Z,68.20
2023-05-20T07:11:40.616Z,67.70
2023-05-20T07:14:42.835Z,67.20
2023-05-20T07:17:44.517Z,67.10
2023-05-20T07:20:46.523Z,66.80
2023-05-20T07:23:48.216Z,66.70
2023-05-20T07:26:49.907Z,67.10
2023-05-20T07:29:51.736Z,67.20
2023-05-20T07:32:53.482Z,67.10
2023-05-20T07:35:55.831Z,66.90
2023-05-20T07:39:03.912Z,67.40
2023-05-20T07:42:06.721Z,67.20
2023-05-20T07:45:09.170Z,67.00
2023-05-20T07:48:11.019Z,65.90
2023-05-20T07:51:12.870Z,65.40
2023-05-20T07:54:15.722Z,64.50
2023-05-20T07:57:17.369Z,64.40
2023-05-20T08:00:19.430Z,64.30
2023-05-20T08:03:22.331Z,64.30
2023-05-20T08:06:29.424Z,63.90
2023-05-20T08:09:32.489Z,63.80
2023-05-20T08:12:34.171Z,63.10
2023-05-20T08:15:37.041Z,62.80
2023-05-20T08:18:38.880Z,62.00
2023-05-20T08:21:40.547Z,61.90
2023-05-20T08:24:42.214Z,61.60
2023-05-20T08:27:44.620Z,61.70
2023-05-20T08:30:48.042Z,61.70
2023-05-20T08:33:50.563Z,60.70
2023-05-20T08:36:52.594Z,60.00
2023-05-20T08:39:54.641Z,59.90
2023-05-20T08:42:57.656Z,59.10
2023-05-20T08:45:59.360Z,59.60
2023-05-20T08:49:01.481Z,59.50
2023-05-20T08:52:03.981Z,59.30
2023-05-20T08:55:09.556Z,58.60
2023-05-20T08:58:11.214Z,58.20
2023-05-20T09:01:13.135Z,58.50
2023-05-20T09:04:14.766Z,58.20
2023-05-20T09:07:27.720Z,58.30
2023-05-20T09:10:29.586Z,58.40
2023-05-20T09:13:32.671Z,58.10
2023-05-20T09:16:34.972Z,58.40
2023-05-20T09:19:36.953Z,58.40
2023-05-20T09:22:39.501Z,57.80
2023-05-20T09:25:41.481Z,57.00
2023-05-20T09:28:43.175Z,58.00
2023-05-20T09:31:44.948Z,56.60
2023-05-20T09:34:47.475Z,56.90
2023-05-20T09:37:52.705Z,56.50
2023-05-20T09:40:55.510Z,57.00
2023-05-20T09:43:57.448Z,56.90
2023-05-20T09:47:01.001Z,57.60
2023-05-20T09:50:03.853Z,57.30
2023-05-20T09:53:06.488Z,57.60
2023-05-20T09:56:08.261Z,57.40
2023-05-20T09:59:11.509Z,57.10
2023-05-20T10:02:13.441Z,57.30
2023-05-20T10:05:29.563Z,57.60
2023-05-20T10:09:05.210Z,57.20
2023-05-20T10:12:25.235Z,57.20
2023-05-20T10:16:03.951Z,57.50
2023-05-20T10:19:31.334Z,57.60
2023-05-20T10:22:33.198Z,57.70
2023-05-20T10:25:35.079Z,56.80
2023-05-20T10:28:40.848Z,56.60
2023-05-20T10:31:51.610Z,55.00
2023-05-20T10:34:58.271Z,54.80
2023-05-20T10:38:11.230Z,55.30
2023-05-20T10:41:12.913Z,55.30
2023-05-20T10:44:14.576Z,55.00
2023-05-20T10:47:25.233Z,54.70
2023-05-20T10:50:29.256Z,55.30
2023-05-20T10:53:39.788Z,54.30
2023-05-20T10:56:54.181Z,54.10
2023-05-20T10:59:56.908Z,53.90
2023-05-20T11:02:58.840Z,54.30
2023-05-20T11:06:00.651Z,53.80
2023-05-20T11:09:07.472Z,53.90
2023-05-20T11:12:09.150Z,53.40
2023-05-20T11:15:13.227Z,53.80
2023-05-20T11:18:17.030Z,53.10
2023-05-20T11:21:20.418Z,52.80
2023-05-20T11:24:28.648Z,53.00
2023-05-20T11:27:30.260Z,51.50
2023-05-20T11:30:32.073Z,53.00
2023-05-20T11:33:41.288Z,52.40
2023-05-20T11:36:43.834Z,51.70
2023-05-20T11:39:46.080Z,51.30
2023-05-20T11:42:47.801Z,49.50
2023-05-20T11:45:59.675Z,50.50
2023-05-20T11:49:01.591Z,51.00
2023-05-20T11:52:03.764Z,50.90
2023-05-20T11:55:11.093Z,51.30
2023-05-20T11:58:16.556Z,52.40
2023-05-20T12:01:22.882Z,51.80
2023-05-20T12:04:24.931Z,52.50
2023-05-20T12:07:26.795Z,52.40
2023-05-20T12:10:28.436Z,52.60
2023-05-20T12:13:30.142Z,53.00
2023-05-20T12:16:33.372Z,53.60
2023-05-20T12:19:36.277Z,52.30
2023-05-20T12:22:38.636Z,52.60
2023-05-20T12:25:40.346Z,52.10
2023-05-20T12:28:42.083Z,52.80
2023-05-20T12:31:43.725Z,52.80
2023-05-20T12:34:45.387Z,52.60
2023-05-20T12:37:47.006Z,53.40
2023-05-20T12:40:48.687Z,52.40
2023-05-20T12:43:50.405Z,51.10
2023-05-20T12:46:54.523Z,51.70
2023-05-20T12:49:56.245Z,52.00
2023-05-20T12:52:57.858Z,51.90
2023-05-20T12:55:59.749Z,51.50
2023-05-20T12:59:02.023Z,52.10
2023-05-20T13:02:03.959Z,51.00
2023-05-20T13:05:06.284Z,51.40
2023-05-20T13:08:10.094Z,51.80
2023-05-20T13:11:11.927Z,51.90
2023-05-20T13:14:15.194Z,52.20
2023-05-20T13:17:18.813Z,52.40
2023-05-20T13:20:20.538Z,52.80
2023-05-20T13:23:22.219Z,52.40
2023-05-20T13:26:23.891Z,52.10
2023-05-20T13:29:25.568Z,52.00
2023-05-20T13:32:27.583Z,51.20
2023-05-20T13:35:29.227Z,50.80
2023-05-20T13:38:30.970Z,50.90
2023-05-20T13:41:33.143Z,51.00
2023-05-20T13:44:34.780Z,51.00
2023-05-20T13:47:36.537Z,51.10
2023-05-20T13:50:38.383Z,51.30
2023-05-20T13:53:40.343Z,51.40
2023-05-20T13:56:42.558Z,51.90
2023-05-20T13:59:44.311Z,52.90
2023-05-20T14:02:46.578Z,53.00
2023-05-20T14:05:48.285Z,52.80
2023-05-20T14:08:49.933Z,53.40
2023-05-20T14:11:51.582Z,52.30
2023-05-20T14:14:53.367Z,52.10
2023-05-20T14:17:55.100Z,52.10
2023-05-20T14:20:57.131Z,51.80
2023-05-20T14:23:59.300Z,51.70
2023-05-20T14:27:01.018Z,51.70
2023-05-20T14:30:02.792Z,51.80
2023-05-20T14:33:04.652Z,52.20
2023-05-20T14:36:06.485Z,52.30
2023-05-20T14:39:08.166Z,52.10
2023-05-20T14:42:09.810Z,52.30
2023-05-20T14:45:11.476Z,52.70
2023-05-20T14:48:13.347Z,52.50
2023-05-20T14:51:15.545Z,51.90
2023-05-20T14:54:18.986Z,51.80
2023-05-20T14:57:20.660Z,51.80
2023-05-20T15:00:22.371Z,52.50
2023-05-20T15:03:24.506Z,52.40
2023-05-20T15:06:26.822Z,51.70
2023-05-20T15:09:28.604Z,52.10
2023-05-20T15:12:30.423Z,51.80
2023-05-20T15:15:33.064Z,51.50
2023-05-20T15:18:37.855Z,51.40
2023-05-20T15:21:40.082Z,51.60
2023-05-20T15:24:41.827Z,51.30
2023-05-20T15:27:43.496Z,51.60
2023-05-20T15:30:54.396Z,52.30
2023-05-20T15:33:56.309Z,52.70
2023-05-20T15:36:58.172Z,53.30
2023-05-20T15:39:59.802Z,52.90
2023-05-20T15:43:01.432Z,52.20
2023-05-20T15:46:03.290Z,51.90
2023-05-20T15:49:08.068Z,51.60
2023-05-20T15:52:09.724Z,50.80
2023-05-20T15:55:11.476Z,51.10
2023-05-20T15:58:13.417Z,51.50
2023-05-20T16:01:15.490Z,51.80
2023-05-20T16:04:17.214Z,51.60
2023-05-20T16:07:18.966Z,51.50
2023-05-20T16:10:20.865Z,51.40
2023-05-20T16:13:22.985Z,51.40
2023-05-20T16:16:26.095Z,51.80
2023-05-20T16:19:27.891Z,52.50
2023-05-20T16:22:29.720Z,53.80
2023-05-20T16:25:31.385Z,54.00
2023-05-20T16:28:33.167Z,53.70
2023-05-20T16:31:35.083Z,54.50
2023-05-20T16:34:37.570Z,54.70
2023-05-20T16:37:39.442Z,54.40
2023-05-20T16:40:41.193Z,54.30
2023-05-20T16:43:42.917Z,54.40
2023-05-20T16:46:44.549Z,54.80
2023-05-20T16:49:46.474Z,55.50
2023-05-20T16:52:48.209Z,55.60
2023-05-20T16:55:50.529Z,55.90
2023-05-20T16:58:53.266Z,55.70
2023-05-20T17:01:55.065Z,56.10
2023-05-20T17:04:57.688Z,56.50
2023-05-20T17:08:00.775Z,56.10
2023-05-20T17:11:02.590Z,55.80
2023-05-20T17:14:05.287Z,56.20
2023-05-20T17:17:09.402Z,56.30
2023-05-20T17:20:11.595Z,57.10
2023-05-20T17:23:14.724Z,57.80
2023-05-20T17:26:16.592Z,57.90
2023-05-20T17:29:18.741Z,58.20
2023-05-20T17:32:20.594Z,58.40
2023-05-20T17:35:25.435Z,59.00
2023-05-20T17:38:27.449Z,59.10
2023-05-20T17:41:29.094Z,59.50
2023-05-20T17:44:30.717Z,59.90
2023-05-20T17:47:32.480Z,60.10
2023-05-20T17:50:34.409Z,60.40
2023-05-20T17:53:36.286Z,60.70
2023-05-20T17:56:37.921Z,60.50
2023-05-20T17:59:41.577Z,60.60
2023-05-20T18:02:47.937Z,60.70
2023-05-20T18:05:49.748Z,61.30
2023-05-20T18:08:51.469Z,61.40
2023-05-20T18:11:53.172Z,61.70
2023-05-20T18:14:54.904Z,61.90
2023-05-20T18:17:56.581Z,62.20
2023-05-20T18:20:58.195Z,62.50
2023-05-20T18:23:59.896Z,62.60
2023-05-20T18:27:01.580Z,62.90
2023-05-20T18:30:03.569Z,63.30
2023-05-20T18:33:06.081Z,63.90
2023-05-20T18:36:07.952Z,64.20
2023-05-20T18:39:10.079Z,64.40
2023-05-20T18:42:11.895Z,64.60
2023-05-20T18:45:13.609Z,64.90
2023-05-20T18:48:25.664Z,65.30
2023-05-20T18:51:33.060Z,65.70
2023-05-20T18:54:34.976Z,65.90
2023-05-20T18:57:37.555Z,66.10
2023-05-20T19:00:39.231Z,66.40
2023-05-20T19:03:44.264Z,66.80
2023-05-20T19:06:46.052Z,67.00
2023-05-20T19:09:47.793Z,67.60
2023-05-20T19:12:51.076Z,67.90
2023-05-20T19:15:53.000Z,68.10
2023-05-20T19:18:55.117Z,68.40
2023-05-20T19:21:56.798Z,68.60
2023-05-20T19:24:58.568Z,68.90
2023-05-20T19:28:00.308Z,69.10
2023-05-20T19:31:02.147Z,69.40
2023-05-20T19:34:03.907Z,69.40
2023-05-20T19:37:05.698Z,69.60
2023-05-20T19:40:08.024Z,69.60
2023-05-20T19:43:10.018Z,70.00
2023-05-20T19:46:11.695Z,70.10
2023-05-20T19:49:13.419Z,70.30
2023-05-20T19:52:15.480Z,70.50
2023-05-20T19:55:17.144Z,70.60
2023-05-20T19:58:19.125Z,70.70
2023-05-20T20:01:23.871Z,71.00
2023-05-20T20:04:25.527Z,71.20
2023-05-20T20:07:27.349Z,71.40
2023-05-20T20:10:30.736Z,71.60
2023-05-20T20:13:32.471Z,71.60
2023-05-20T20:16:34.752Z,71.80
2023-05-20T20:19:38.900Z,72.00
2023-05-20T20:22:41.733Z,72.10
2023-05-20T20:25:43.936Z,72.40
2023-05-20T20:28:45.602Z,72.40
2023-05-20T20:31:47.457Z,72.50
2023-05-20T20:34:49.096Z,72.70
2023-05-20T20:37:54.265Z,72.90
2023-05-20T20:40:55.943Z,72.90
2023-05-20T20:43:58.463Z,73.20
2023-05-20T20:47:00.194Z,73.30
2023-05-20T20:50:03.588Z,73.50
2023-05-20T20:53:05.634Z,73.60
2023-05-20T20:56:07.752Z,73.80
2023-05-20T20:59:10.179Z,73.90
2023-05-20T21:02:12.194Z,73.90
2023-05-20T21:05:16.723Z,74.10
2023-05-20T21:08:26.520Z,74.20
2023-05-20T21:11:28.706Z,74.30
2023-05-20T21:14:30.357Z,74.40
2023-05-20T21:17:31.984Z,74.60
2023-05-20T21:20:33.665Z,74.70
2023-05-20T21:23:35.377Z,74.80
2023-05-20T21:26:37.095Z,75.20
2023-05-20T21:29:40.303Z,75.30
2023-05-20T21:32:42.319Z,75.40
2023-05-20T21:35:44.067Z,75.60
2023-05-20T21:38:46.023Z,75.70
2023-05-20T21:41:47.890Z,75.80
2023-05-20T21:44:49.635Z,76.00
2023-05-20T21:47:51.392Z,76.10
2023-05-20T21:50:56.366Z,76.30
2023-05-20T21:53:58.274Z,76.40
2023-05-20T21:56:59.932Z,76.60
2023-05-20T22:00:03.333Z,76.80
2023-05-20T22:03:05.106Z,76.70
2023-05-20T22:06:06.929Z,77.10
2023-05-20T22:09:08.720Z,77.40
2023-05-20T22:12:11.161Z,77.40
2023-05-20T22:15:12.975Z,77.70
2023-05-20T22:18:15.221Z,77.70
2023-05-20T22:21:17.187Z,77.90
2023-05-20T22:24:19.007Z,78.10
2023-05-20T22:27:21.325Z,78.20
2023-05-20T22:30:23.003Z,78.30
2023-05-20T22:33:24.639Z,78.40
2023-05-20T22:36:27.511Z,78.50
2023-05-20T22:39:29.127Z,78.60
2023-05-20T22:42:31.021Z,78.70
2023-05-20T22:45:32.658Z,78.90
2023-05-20T22:48:34.314Z,79.00
2023-05-20T22:51:36.107Z,79.00
2023-05-20T22:54:37.873Z,79.00
2023-05-20T22:57:39.579Z,79.10
2023-05-20T23:00:41.700Z,79.10
2023-05-20T23:03:44.790Z,79.20
2023-05-20T23:06:46.540Z,79.30
2023-05-20T23:09:48.600Z,79.50
2023-05-20T23:12:50.336Z,79.40
2023-05-20T23:15:52.022Z,79.60
2023-05-20T23:18:53.748Z,79.60
2023-05-20T23:21:55.647Z,79.60
2023-05-20T23:24:57.265Z,79.60
2023-05-20T23:27:58.891Z,79.70
2023-05-20T23:31:00.916Z,79.80
2023-05-20T23:34:03.836Z,79.80
2023-05-20T23:37:05.556Z,79.80
2023-05-20T23:40:09.069Z,79.90
2023-05-20T23:43:10.803Z,79.90
2023-05-20T23:46:12.566Z,79.80
2023-05-20T23:49:14.277Z,79.90
2023-05-20T23:52:15.913Z,79.90
2023-05-20T23:55:18.305Z,79.90
2023-05-20T23:58:19.990Z,79.90
